<?xml version="1.0" encoding="UTF-8" standalone="no" ?>
<gpx xmlns="http://www.topografix.com/GPX/1/1" xmlns:xsi="http://www.w3.org/2001/XMLSchema-instance" xsi:schemaLocation="http://www.topografix.com/GPX/1/1 http://www.topografix.com/GPX/1/1/gpx.xsd" version="1.1" creator="VisuGPX - https://www.visugpx.com">
  <metadata>
    <name>proposition : L'Esterel - Le circuit du Grenouillet 9,5 km</name>
    <desc><![CDATA[L'Esterel - Le circuit du Grenouillet]]></desc>
  </metadata>
  <trk>
    <name><![CDATA[Le circuit du Grenouillet]]></name>
    <trkseg>
      <trkpt lat="43.46079" lon="6.8209">
        <ele>100</ele>
        <time>2014-09-14T14:55:51+02:00</time>
      </trkpt>
      <trkpt lat="43.46087" lon="6.82128">
        <ele>102</ele>
        <time>2014-09-14T14:55:56+02:00</time>
      </trkpt>
      <trkpt lat="43.46092" lon="6.82152">
        <ele>105</ele>
        <time>2014-09-14T14:56:01+02:00</time>
      </trkpt>
      <trkpt lat="43.4609" lon="6.82181">
        <ele>108</ele>
        <time>2014-09-14T14:56:06+02:00</time>
      </trkpt>
      <trkpt lat="43.46086" lon="6.82198">
        <ele>110</ele>
        <time>2014-09-14T14:56:11+02:00</time>
      </trkpt>
      <trkpt lat="43.46085" lon="6.82215">
        <ele>111</ele>
        <time>2014-09-14T14:56:16+02:00</time>
      </trkpt>
      <trkpt lat="43.46078" lon="6.82244">
        <ele>113</ele>
        <time>2014-09-14T14:56:21+02:00</time>
      </trkpt>
      <trkpt lat="43.4606" lon="6.82221">
        <ele>110</ele>
        <time>2014-09-14T14:56:26+02:00</time>
      </trkpt>
      <trkpt lat="43.46054" lon="6.82204">
        <ele>108</ele>
        <time>2014-09-14T14:56:31+02:00</time>
      </trkpt>
      <trkpt lat="43.46043" lon="6.82206">
        <ele>108</ele>
        <time>2014-09-14T14:56:36+02:00</time>
      </trkpt>
      <trkpt lat="43.46026" lon="6.82218">
        <ele>107</ele>
        <time>2014-09-14T14:56:41+02:00</time>
      </trkpt>
      <trkpt lat="43.46008" lon="6.82238">
        <ele>105</ele>
        <time>2014-09-14T14:56:46+02:00</time>
      </trkpt>
      <trkpt lat="43.45982" lon="6.82256">
        <ele>101</ele>
        <time>2014-09-14T14:56:51+02:00</time>
      </trkpt>
      <trkpt lat="43.45958" lon="6.82274">
        <ele>97</ele>
        <time>2014-09-14T14:56:56+02:00</time>
      </trkpt>
      <trkpt lat="43.45934" lon="6.82296">
        <ele>93</ele>
        <time>2014-09-14T14:57:01+02:00</time>
      </trkpt>
      <trkpt lat="43.45907" lon="6.82317">
        <ele>91</ele>
        <time>2014-09-14T14:57:06+02:00</time>
      </trkpt>
      <trkpt lat="43.4586" lon="6.82351">
        <ele>87</ele>
        <time>2014-09-14T14:57:11+02:00</time>
      </trkpt>
      <trkpt lat="43.45813" lon="6.82389">
        <ele>83</ele>
        <time>2014-09-14T14:57:16+02:00</time>
      </trkpt>
      <trkpt lat="43.4577" lon="6.82427">
        <ele>81</ele>
        <time>2014-09-14T14:57:21+02:00</time>
      </trkpt>
      <trkpt lat="43.45727" lon="6.82459">
        <ele>76</ele>
        <time>2014-09-14T14:57:26+02:00</time>
      </trkpt>
      <trkpt lat="43.45681" lon="6.82493">
        <ele>74</ele>
        <time>2014-09-14T14:57:31+02:00</time>
      </trkpt>
      <trkpt lat="43.45636" lon="6.82527">
        <ele>72</ele>
        <time>2014-09-14T14:57:36+02:00</time>
      </trkpt>
      <trkpt lat="43.45621" lon="6.82581">
        <ele>69</ele>
        <time>2014-09-14T14:57:41+02:00</time>
      </trkpt>
      <trkpt lat="43.45614" lon="6.82609">
        <ele>67</ele>
        <time>2014-09-14T14:57:46+02:00</time>
      </trkpt>
      <trkpt lat="43.45603" lon="6.82637">
        <ele>66</ele>
        <time>2014-09-14T14:57:51+02:00</time>
      </trkpt>
      <trkpt lat="43.45602" lon="6.82655">
        <ele>65</ele>
        <time>2014-09-14T14:57:56+02:00</time>
      </trkpt>
      <trkpt lat="43.45607" lon="6.82671">
        <ele>65</ele>
        <time>2014-09-14T14:58:01+02:00</time>
      </trkpt>
      <trkpt lat="43.45613" lon="6.82688">
        <ele>64</ele>
        <time>2014-09-14T14:58:06+02:00</time>
      </trkpt>
      <trkpt lat="43.45617" lon="6.82707">
        <ele>64</ele>
        <time>2014-09-14T14:58:11+02:00</time>
      </trkpt>
      <trkpt lat="43.45614" lon="6.82717">
        <ele>63</ele>
        <time>2014-09-14T14:58:16+02:00</time>
      </trkpt>
      <trkpt lat="43.45608" lon="6.82723">
        <ele>62</ele>
        <time>2014-09-14T14:58:21+02:00</time>
      </trkpt>
      <trkpt lat="43.45597" lon="6.82734">
        <ele>61</ele>
        <time>2014-09-14T14:58:26+02:00</time>
      </trkpt>
      <trkpt lat="43.45583" lon="6.82762">
        <ele>58</ele>
        <time>2014-09-14T14:58:31+02:00</time>
      </trkpt>
      <trkpt lat="43.45573" lon="6.82796">
        <ele>56</ele>
        <time>2014-09-14T14:58:36+02:00</time>
      </trkpt>
      <trkpt lat="43.45569" lon="6.82831">
        <ele>55</ele>
        <time>2014-09-14T14:58:41+02:00</time>
      </trkpt>
      <trkpt lat="43.4556" lon="6.82854">
        <ele>54</ele>
        <time>2014-09-14T14:58:46+02:00</time>
      </trkpt>
      <trkpt lat="43.45554" lon="6.82881">
        <ele>53</ele>
        <time>2014-09-14T14:58:51+02:00</time>
      </trkpt>
      <trkpt lat="43.45545" lon="6.82909">
        <ele>52</ele>
        <time>2014-09-14T14:58:56+02:00</time>
      </trkpt>
      <trkpt lat="43.45542" lon="6.8293">
        <ele>52</ele>
        <time>2014-09-14T14:59:01+02:00</time>
      </trkpt>
      <trkpt lat="43.45544" lon="6.82945">
        <ele>52</ele>
        <time>2014-09-14T14:59:06+02:00</time>
      </trkpt>
      <trkpt lat="43.45555" lon="6.8295">
        <ele>53</ele>
        <time>2014-09-14T14:59:11+02:00</time>
      </trkpt>
      <trkpt lat="43.45562" lon="6.82966">
        <ele>54</ele>
        <time>2014-09-14T14:59:16+02:00</time>
      </trkpt>
      <trkpt lat="43.45576" lon="6.8301">
        <ele>55</ele>
        <time>2014-09-14T14:59:21+02:00</time>
      </trkpt>
      <trkpt lat="43.45584" lon="6.83042">
        <ele>56</ele>
        <time>2014-09-14T14:59:26+02:00</time>
      </trkpt>
      <trkpt lat="43.45587" lon="6.83089">
        <ele>56</ele>
        <time>2014-09-14T14:59:31+02:00</time>
      </trkpt>
      <trkpt lat="43.4559" lon="6.83113">
        <ele>56</ele>
        <time>2014-09-14T14:59:36+02:00</time>
      </trkpt>
      <trkpt lat="43.45597" lon="6.83139">
        <ele>56</ele>
        <time>2014-09-14T14:59:41+02:00</time>
      </trkpt>
      <trkpt lat="43.45606" lon="6.83162">
        <ele>55</ele>
        <time>2014-09-14T14:59:46+02:00</time>
      </trkpt>
      <trkpt lat="43.45618" lon="6.83183">
        <ele>55</ele>
        <time>2014-09-14T14:59:51+02:00</time>
      </trkpt>
      <trkpt lat="43.45641" lon="6.8323">
        <ele>54</ele>
        <time>2014-09-14T14:59:56+02:00</time>
      </trkpt>
      <trkpt lat="43.45659" lon="6.83283">
        <ele>52</ele>
        <time>2014-09-14T15:00:01+02:00</time>
      </trkpt>
      <trkpt lat="43.45669" lon="6.83317">
        <ele>51</ele>
        <time>2014-09-14T15:00:06+02:00</time>
      </trkpt>
      <trkpt lat="43.45678" lon="6.83355">
        <ele>49</ele>
        <time>2014-09-14T15:00:11+02:00</time>
      </trkpt>
      <trkpt lat="43.45685" lon="6.83394">
        <ele>48</ele>
        <time>2014-09-14T15:00:16+02:00</time>
      </trkpt>
      <trkpt lat="43.45688" lon="6.83435">
        <ele>48</ele>
        <time>2014-09-14T15:00:21+02:00</time>
      </trkpt>
      <trkpt lat="43.45687" lon="6.83475">
        <ele>48</ele>
        <time>2014-09-14T15:00:26+02:00</time>
      </trkpt>
      <trkpt lat="43.45682" lon="6.83517">
        <ele>48</ele>
        <time>2014-09-14T15:00:31+02:00</time>
      </trkpt>
      <trkpt lat="43.45682" lon="6.83554">
        <ele>47</ele>
        <time>2014-09-14T15:00:36+02:00</time>
      </trkpt>
      <trkpt lat="43.45688" lon="6.83589">
        <ele>45</ele>
        <time>2014-09-14T15:00:41+02:00</time>
      </trkpt>
      <trkpt lat="43.45694" lon="6.83627">
        <ele>42</ele>
        <time>2014-09-14T15:00:46+02:00</time>
      </trkpt>
      <trkpt lat="43.45708" lon="6.83654">
        <ele>41</ele>
        <time>2014-09-14T15:00:51+02:00</time>
      </trkpt>
      <trkpt lat="43.45721" lon="6.83675">
        <ele>44</ele>
        <time>2014-09-14T15:00:56+02:00</time>
      </trkpt>
      <trkpt lat="43.45729" lon="6.83698">
        <ele>46</ele>
        <time>2014-09-14T15:01:01+02:00</time>
      </trkpt>
      <trkpt lat="43.45732" lon="6.83728">
        <ele>46</ele>
        <time>2014-09-14T15:01:06+02:00</time>
      </trkpt>
      <trkpt lat="43.4573" lon="6.83757">
        <ele>47</ele>
        <time>2014-09-14T15:01:11+02:00</time>
      </trkpt>
      <trkpt lat="43.4573" lon="6.8378">
        <ele>47</ele>
        <time>2014-09-14T15:01:16+02:00</time>
      </trkpt>
      <trkpt lat="43.45726" lon="6.838">
        <ele>47</ele>
        <time>2014-09-14T15:01:21+02:00</time>
      </trkpt>
      <trkpt lat="43.45721" lon="6.83826">
        <ele>47</ele>
        <time>2014-09-14T15:01:26+02:00</time>
      </trkpt>
      <trkpt lat="43.45725" lon="6.83852">
        <ele>45</ele>
        <time>2014-09-14T15:01:31+02:00</time>
      </trkpt>
      <trkpt lat="43.4573" lon="6.83871">
        <ele>43</ele>
        <time>2014-09-14T15:01:36+02:00</time>
      </trkpt>
      <trkpt lat="43.45736" lon="6.83889">
        <ele>40</ele>
        <time>2014-09-14T15:01:41+02:00</time>
      </trkpt>
      <trkpt lat="43.45745" lon="6.83928">
        <ele>33</ele>
        <time>2014-09-14T15:01:46+02:00</time>
      </trkpt>
      <trkpt lat="43.45722" lon="6.83936">
        <ele>37</ele>
        <time>2014-09-14T15:01:51+02:00</time>
      </trkpt>
      <trkpt lat="43.45706" lon="6.83952">
        <ele>39</ele>
        <time>2014-09-14T15:01:56+02:00</time>
      </trkpt>
      <trkpt lat="43.45691" lon="6.8397">
        <ele>39</ele>
        <time>2014-09-14T15:02:01+02:00</time>
      </trkpt>
      <trkpt lat="43.45678" lon="6.83981">
        <ele>40</ele>
        <time>2014-09-14T15:02:06+02:00</time>
      </trkpt>
      <trkpt lat="43.45666" lon="6.83991">
        <ele>40</ele>
        <time>2014-09-14T15:02:11+02:00</time>
      </trkpt>
      <trkpt lat="43.45653" lon="6.83997">
        <ele>41</ele>
        <time>2014-09-14T15:02:16+02:00</time>
      </trkpt>
      <trkpt lat="43.45627" lon="6.84035">
        <ele>37</ele>
        <time>2014-09-14T15:02:21+02:00</time>
      </trkpt>
      <trkpt lat="43.45612" lon="6.84058">
        <ele>33</ele>
        <time>2014-09-14T15:02:26+02:00</time>
      </trkpt>
      <trkpt lat="43.45583" lon="6.84082">
        <ele>28</ele>
        <time>2014-09-14T15:02:31+02:00</time>
      </trkpt>
      <trkpt lat="43.45564" lon="6.84102">
        <ele>24</ele>
        <time>2014-09-14T15:02:36+02:00</time>
      </trkpt>
      <trkpt lat="43.45549" lon="6.84111">
        <ele>22</ele>
        <time>2014-09-14T15:02:41+02:00</time>
      </trkpt>
      <trkpt lat="43.45535" lon="6.84112">
        <ele>22</ele>
        <time>2014-09-14T15:02:46+02:00</time>
      </trkpt>
      <trkpt lat="43.45499" lon="6.841">
        <ele>28</ele>
        <time>2014-09-14T15:02:51+02:00</time>
      </trkpt>
      <trkpt lat="43.45489" lon="6.84095">
        <ele>30</ele>
        <time>2014-09-14T15:02:56+02:00</time>
      </trkpt>
      <trkpt lat="43.45478" lon="6.84096">
        <ele>31</ele>
        <time>2014-09-14T15:03:01+02:00</time>
      </trkpt>
      <trkpt lat="43.45458" lon="6.84092">
        <ele>34</ele>
        <time>2014-09-14T15:03:06+02:00</time>
      </trkpt>
      <trkpt lat="43.4544" lon="6.8409">
        <ele>36</ele>
        <time>2014-09-14T15:03:11+02:00</time>
      </trkpt>
      <trkpt lat="43.45418" lon="6.84093">
        <ele>37</ele>
        <time>2014-09-14T15:03:16+02:00</time>
      </trkpt>
      <trkpt lat="43.45383" lon="6.84104">
        <ele>37</ele>
        <time>2014-09-14T15:03:21+02:00</time>
      </trkpt>
      <trkpt lat="43.45373" lon="6.8412">
        <ele>35</ele>
        <time>2014-09-14T15:03:26+02:00</time>
      </trkpt>
      <trkpt lat="43.45343" lon="6.84165">
        <ele>26</ele>
        <time>2014-09-14T15:03:31+02:00</time>
      </trkpt>
      <trkpt lat="43.4531" lon="6.84195">
        <ele>20</ele>
        <time>2014-09-14T15:03:36+02:00</time>
      </trkpt>
      <trkpt lat="43.4526" lon="6.84211">
        <ele>18</ele>
        <time>2014-09-14T15:03:41+02:00</time>
      </trkpt>
      <trkpt lat="43.45216" lon="6.84221">
        <ele>17</ele>
        <time>2014-09-14T15:03:46+02:00</time>
      </trkpt>
      <trkpt lat="43.45198" lon="6.84232">
        <ele>16</ele>
        <time>2014-09-14T15:03:51+02:00</time>
      </trkpt>
      <trkpt lat="43.4519" lon="6.84246">
        <ele>16</ele>
        <time>2014-09-14T15:03:56+02:00</time>
      </trkpt>
      <trkpt lat="43.45186" lon="6.84255">
        <ele>15</ele>
        <time>2014-09-14T15:04:01+02:00</time>
      </trkpt>
      <trkpt lat="43.45185" lon="6.84268">
        <ele>13</ele>
        <time>2014-09-14T15:04:06+02:00</time>
      </trkpt>
      <trkpt lat="43.45175" lon="6.84276">
        <ele>13</ele>
        <time>2014-09-14T15:04:11+02:00</time>
      </trkpt>
      <trkpt lat="43.45169" lon="6.84286">
        <ele>12</ele>
        <time>2014-09-14T15:04:16+02:00</time>
      </trkpt>
      <trkpt lat="43.45159" lon="6.84308">
        <ele>11</ele>
        <time>2014-09-14T15:04:21+02:00</time>
      </trkpt>
      <trkpt lat="43.45147" lon="6.84326">
        <ele>11</ele>
        <time>2014-09-14T15:04:26+02:00</time>
      </trkpt>
      <trkpt lat="43.45125" lon="6.84364">
        <ele>9</ele>
        <time>2014-09-14T15:04:31+02:00</time>
      </trkpt>
      <trkpt lat="43.45108" lon="6.84389">
        <ele>11</ele>
        <time>2014-09-14T15:04:36+02:00</time>
      </trkpt>
      <trkpt lat="43.45084" lon="6.84435">
        <ele>11</ele>
        <time>2014-09-14T15:04:41+02:00</time>
      </trkpt>
      <trkpt lat="43.45077" lon="6.84466">
        <ele>10</ele>
        <time>2014-09-14T15:04:46+02:00</time>
      </trkpt>
      <trkpt lat="43.45069" lon="6.84484">
        <ele>10</ele>
        <time>2014-09-14T15:04:51+02:00</time>
      </trkpt>
      <trkpt lat="43.4506" lon="6.84498">
        <ele>10</ele>
        <time>2014-09-14T15:04:56+02:00</time>
      </trkpt>
      <trkpt lat="43.45049" lon="6.84515">
        <ele>9</ele>
        <time>2014-09-14T15:05:01+02:00</time>
      </trkpt>
      <trkpt lat="43.45053" lon="6.84526">
        <ele>9</ele>
        <time>2014-09-14T15:05:06+02:00</time>
      </trkpt>
      <trkpt lat="43.45049" lon="6.84549">
        <ele>9</ele>
        <time>2014-09-14T15:05:11+02:00</time>
      </trkpt>
      <trkpt lat="43.45036" lon="6.8458">
        <ele>10</ele>
        <time>2014-09-14T15:05:16+02:00</time>
      </trkpt>
      <trkpt lat="43.45048" lon="6.8458">
        <ele>10</ele>
        <time>2014-09-14T15:05:21+02:00</time>
      </trkpt>
      <trkpt lat="43.45067" lon="6.84573">
        <ele>12</ele>
        <time>2014-09-14T15:05:26+02:00</time>
      </trkpt>
      <trkpt lat="43.45097" lon="6.84551">
        <ele>14</ele>
        <time>2014-09-14T15:05:31+02:00</time>
      </trkpt>
      <trkpt lat="43.45119" lon="6.84528">
        <ele>15</ele>
        <time>2014-09-14T15:05:36+02:00</time>
      </trkpt>
      <trkpt lat="43.45137" lon="6.8453">
        <ele>17</ele>
        <time>2014-09-14T15:05:41+02:00</time>
      </trkpt>
      <trkpt lat="43.4515" lon="6.84534">
        <ele>19</ele>
        <time>2014-09-14T15:05:46+02:00</time>
      </trkpt>
      <trkpt lat="43.45161" lon="6.84556">
        <ele>22</ele>
        <time>2014-09-14T15:05:51+02:00</time>
      </trkpt>
      <trkpt lat="43.45181" lon="6.84571">
        <ele>25</ele>
        <time>2014-09-14T15:05:56+02:00</time>
      </trkpt>
      <trkpt lat="43.45209" lon="6.84603">
        <ele>30</ele>
        <time>2014-09-14T15:06:01+02:00</time>
      </trkpt>
      <trkpt lat="43.45222" lon="6.84618">
        <ele>33</ele>
        <time>2014-09-14T15:06:06+02:00</time>
      </trkpt>
      <trkpt lat="43.45236" lon="6.84627">
        <ele>36</ele>
        <time>2014-09-14T15:06:11+02:00</time>
      </trkpt>
      <trkpt lat="43.4525" lon="6.84622">
        <ele>39</ele>
        <time>2014-09-14T15:06:16+02:00</time>
      </trkpt>
      <trkpt lat="43.45252" lon="6.84606">
        <ele>39</ele>
        <time>2014-09-14T15:06:21+02:00</time>
      </trkpt>
      <trkpt lat="43.45253" lon="6.84591">
        <ele>39</ele>
        <time>2014-09-14T15:06:26+02:00</time>
      </trkpt>
      <trkpt lat="43.45253" lon="6.84573">
        <ele>39</ele>
        <time>2014-09-14T15:06:31+02:00</time>
      </trkpt>
      <trkpt lat="43.45262" lon="6.84564">
        <ele>41</ele>
        <time>2014-09-14T15:06:36+02:00</time>
      </trkpt>
      <trkpt lat="43.45271" lon="6.84566">
        <ele>43</ele>
        <time>2014-09-14T15:06:41+02:00</time>
      </trkpt>
      <trkpt lat="43.45281" lon="6.84554">
        <ele>45</ele>
        <time>2014-09-14T15:06:46+02:00</time>
      </trkpt>
      <trkpt lat="43.45288" lon="6.8454">
        <ele>46</ele>
        <time>2014-09-14T15:06:51+02:00</time>
      </trkpt>
      <trkpt lat="43.45306" lon="6.84529">
        <ele>48</ele>
        <time>2014-09-14T15:06:56+02:00</time>
      </trkpt>
      <trkpt lat="43.45312" lon="6.84527">
        <ele>49</ele>
        <time>2014-09-14T15:07:01+02:00</time>
      </trkpt>
      <trkpt lat="43.45318" lon="6.84515">
        <ele>49</ele>
        <time>2014-09-14T15:07:06+02:00</time>
      </trkpt>
      <trkpt lat="43.45323" lon="6.84502">
        <ele>48</ele>
        <time>2014-09-14T15:07:11+02:00</time>
      </trkpt>
      <trkpt lat="43.45329" lon="6.84494">
        <ele>48</ele>
        <time>2014-09-14T15:07:16+02:00</time>
      </trkpt>
      <trkpt lat="43.45348" lon="6.84504">
        <ele>52</ele>
        <time>2014-09-14T15:07:21+02:00</time>
      </trkpt>
      <trkpt lat="43.45357" lon="6.84519">
        <ele>56</ele>
        <time>2014-09-14T15:07:26+02:00</time>
      </trkpt>
      <trkpt lat="43.45365" lon="6.84532">
        <ele>58</ele>
        <time>2014-09-14T15:07:31+02:00</time>
      </trkpt>
      <trkpt lat="43.45376" lon="6.84529">
        <ele>60</ele>
        <time>2014-09-14T15:07:36+02:00</time>
      </trkpt>
      <trkpt lat="43.45388" lon="6.84528">
        <ele>60</ele>
        <time>2014-09-14T15:07:41+02:00</time>
      </trkpt>
      <trkpt lat="43.45399" lon="6.8453">
        <ele>61</ele>
        <time>2014-09-14T15:07:46+02:00</time>
      </trkpt>
      <trkpt lat="43.45409" lon="6.84548">
        <ele>63</ele>
        <time>2014-09-14T15:07:51+02:00</time>
      </trkpt>
      <trkpt lat="43.45421" lon="6.84575">
        <ele>65</ele>
        <time>2014-09-14T15:07:56+02:00</time>
      </trkpt>
      <trkpt lat="43.45447" lon="6.84652">
        <ele>70</ele>
        <time>2014-09-14T15:08:01+02:00</time>
      </trkpt>
      <trkpt lat="43.45452" lon="6.8469">
        <ele>70</ele>
        <time>2014-09-14T15:08:06+02:00</time>
      </trkpt>
      <trkpt lat="43.45457" lon="6.84707">
        <ele>71</ele>
        <time>2014-09-14T15:08:11+02:00</time>
      </trkpt>
      <trkpt lat="43.45466" lon="6.84716">
        <ele>71</ele>
        <time>2014-09-14T15:08:16+02:00</time>
      </trkpt>
      <trkpt lat="43.45477" lon="6.84728">
        <ele>71</ele>
        <time>2014-09-14T15:08:21+02:00</time>
      </trkpt>
      <trkpt lat="43.45483" lon="6.84743">
        <ele>71</ele>
        <time>2014-09-14T15:08:26+02:00</time>
      </trkpt>
      <trkpt lat="43.45525" lon="6.84828">
        <ele>74</ele>
        <time>2014-09-14T15:08:31+02:00</time>
      </trkpt>
      <trkpt lat="43.45555" lon="6.84839">
        <ele>76</ele>
        <time>2014-09-14T15:08:36+02:00</time>
      </trkpt>
      <trkpt lat="43.45583" lon="6.84844">
        <ele>78</ele>
        <time>2014-09-14T15:08:41+02:00</time>
      </trkpt>
      <trkpt lat="43.45604" lon="6.84854">
        <ele>79</ele>
        <time>2014-09-14T15:08:46+02:00</time>
      </trkpt>
      <trkpt lat="43.45625" lon="6.84869">
        <ele>81</ele>
        <time>2014-09-14T15:08:51+02:00</time>
      </trkpt>
      <trkpt lat="43.45654" lon="6.84897">
        <ele>84</ele>
        <time>2014-09-14T15:08:56+02:00</time>
      </trkpt>
      <trkpt lat="43.45669" lon="6.84908">
        <ele>86</ele>
        <time>2014-09-14T15:09:01+02:00</time>
      </trkpt>
      <trkpt lat="43.45679" lon="6.84929">
        <ele>88</ele>
        <time>2014-09-14T15:09:06+02:00</time>
      </trkpt>
      <trkpt lat="43.45687" lon="6.84929">
        <ele>89</ele>
        <time>2014-09-14T15:09:11+02:00</time>
      </trkpt>
      <trkpt lat="43.45708" lon="6.84923">
        <ele>92</ele>
        <time>2014-09-14T15:09:16+02:00</time>
      </trkpt>
      <trkpt lat="43.45719" lon="6.84925">
        <ele>92</ele>
        <time>2014-09-14T15:09:21+02:00</time>
      </trkpt>
      <trkpt lat="43.45727" lon="6.84932">
        <ele>92</ele>
        <time>2014-09-14T15:09:26+02:00</time>
      </trkpt>
      <trkpt lat="43.4573" lon="6.84953">
        <ele>94</ele>
        <time>2014-09-14T15:09:31+02:00</time>
      </trkpt>
      <trkpt lat="43.4573" lon="6.84981">
        <ele>93</ele>
        <time>2014-09-14T15:09:36+02:00</time>
      </trkpt>
      <trkpt lat="43.45732" lon="6.85006">
        <ele>91</ele>
        <time>2014-09-14T15:09:41+02:00</time>
      </trkpt>
      <trkpt lat="43.45768" lon="6.85019">
        <ele>91</ele>
        <time>2014-09-14T15:09:46+02:00</time>
      </trkpt>
      <trkpt lat="43.45798" lon="6.85049">
        <ele>91</ele>
        <time>2014-09-14T15:09:51+02:00</time>
      </trkpt>
      <trkpt lat="43.4582" lon="6.85058">
        <ele>90</ele>
        <time>2014-09-14T15:09:56+02:00</time>
      </trkpt>
      <trkpt lat="43.4586" lon="6.85041">
        <ele>91</ele>
        <time>2014-09-14T15:10:01+02:00</time>
      </trkpt>
      <trkpt lat="43.45902" lon="6.85026">
        <ele>90</ele>
        <time>2014-09-14T15:10:06+02:00</time>
      </trkpt>
      <trkpt lat="43.45929" lon="6.85084">
        <ele>93</ele>
        <time>2014-09-14T15:10:11+02:00</time>
      </trkpt>
      <trkpt lat="43.45941" lon="6.85116">
        <ele>95</ele>
        <time>2014-09-14T15:10:16+02:00</time>
      </trkpt>
      <trkpt lat="43.45954" lon="6.85151">
        <ele>95</ele>
        <time>2014-09-14T15:10:21+02:00</time>
      </trkpt>
      <trkpt lat="43.45965" lon="6.85172">
        <ele>95</ele>
        <time>2014-09-14T15:10:26+02:00</time>
      </trkpt>
      <trkpt lat="43.45976" lon="6.85198">
        <ele>94</ele>
        <time>2014-09-14T15:10:31+02:00</time>
      </trkpt>
      <trkpt lat="43.46003" lon="6.85221">
        <ele>94</ele>
        <time>2014-09-14T15:10:36+02:00</time>
      </trkpt>
      <trkpt lat="43.46016" lon="6.85231">
        <ele>95</ele>
        <time>2014-09-14T15:10:41+02:00</time>
      </trkpt>
      <trkpt lat="43.46024" lon="6.85245">
        <ele>95</ele>
        <time>2014-09-14T15:10:46+02:00</time>
      </trkpt>
      <trkpt lat="43.46028" lon="6.85257">
        <ele>96</ele>
        <time>2014-09-14T15:10:51+02:00</time>
      </trkpt>
      <trkpt lat="43.46028" lon="6.85273">
        <ele>96</ele>
        <time>2014-09-14T15:10:56+02:00</time>
      </trkpt>
      <trkpt lat="43.46019" lon="6.85301">
        <ele>96</ele>
        <time>2014-09-14T15:11:01+02:00</time>
      </trkpt>
      <trkpt lat="43.46006" lon="6.85329">
        <ele>95</ele>
        <time>2014-09-14T15:11:06+02:00</time>
      </trkpt>
      <trkpt lat="43.45994" lon="6.85348">
        <ele>94</ele>
        <time>2014-09-14T15:11:11+02:00</time>
      </trkpt>
      <trkpt lat="43.45983" lon="6.85371">
        <ele>93</ele>
        <time>2014-09-14T15:11:16+02:00</time>
      </trkpt>
      <trkpt lat="43.45966" lon="6.85393">
        <ele>92</ele>
        <time>2014-09-14T15:11:21+02:00</time>
      </trkpt>
      <trkpt lat="43.45949" lon="6.85455">
        <ele>94</ele>
        <time>2014-09-14T15:11:26+02:00</time>
      </trkpt>
      <trkpt lat="43.45939" lon="6.85477">
        <ele>94</ele>
        <time>2014-09-14T15:11:31+02:00</time>
      </trkpt>
      <trkpt lat="43.45926" lon="6.85493">
        <ele>93</ele>
        <time>2014-09-14T15:11:36+02:00</time>
      </trkpt>
      <trkpt lat="43.45899" lon="6.85496">
        <ele>91</ele>
        <time>2014-09-14T15:11:41+02:00</time>
      </trkpt>
      <trkpt lat="43.45884" lon="6.85491">
        <ele>89</ele>
        <time>2014-09-14T15:11:46+02:00</time>
      </trkpt>
      <trkpt lat="43.45871" lon="6.85478">
        <ele>88</ele>
        <time>2014-09-14T15:11:51+02:00</time>
      </trkpt>
      <trkpt lat="43.45863" lon="6.85469">
        <ele>88</ele>
        <time>2014-09-14T15:11:56+02:00</time>
      </trkpt>
      <trkpt lat="43.45849" lon="6.85461">
        <ele>88</ele>
        <time>2014-09-14T15:12:01+02:00</time>
      </trkpt>
      <trkpt lat="43.45839" lon="6.85452">
        <ele>87</ele>
        <time>2014-09-14T15:12:06+02:00</time>
      </trkpt>
      <trkpt lat="43.45823" lon="6.85437">
        <ele>86</ele>
        <time>2014-09-14T15:12:11+02:00</time>
      </trkpt>
      <trkpt lat="43.45809" lon="6.85429">
        <ele>85</ele>
        <time>2014-09-14T15:12:16+02:00</time>
      </trkpt>
      <trkpt lat="43.45791" lon="6.8542">
        <ele>84</ele>
        <time>2014-09-14T15:12:21+02:00</time>
      </trkpt>
      <trkpt lat="43.45774" lon="6.85419">
        <ele>84</ele>
        <time>2014-09-14T15:12:26+02:00</time>
      </trkpt>
      <trkpt lat="43.45748" lon="6.85422">
        <ele>85</ele>
        <time>2014-09-14T15:12:31+02:00</time>
      </trkpt>
      <trkpt lat="43.45736" lon="6.85415">
        <ele>85</ele>
        <time>2014-09-14T15:12:36+02:00</time>
      </trkpt>
      <trkpt lat="43.45682" lon="6.85383">
        <ele>83</ele>
        <time>2014-09-14T15:12:41+02:00</time>
      </trkpt>
      <trkpt lat="43.45645" lon="6.85382">
        <ele>83</ele>
        <time>2014-09-14T15:12:46+02:00</time>
      </trkpt>
      <trkpt lat="43.45627" lon="6.85374">
        <ele>83</ele>
        <time>2014-09-14T15:12:51+02:00</time>
      </trkpt>
      <trkpt lat="43.45609" lon="6.85371">
        <ele>81</ele>
        <time>2014-09-14T15:12:56+02:00</time>
      </trkpt>
      <trkpt lat="43.45583" lon="6.85372">
        <ele>80</ele>
        <time>2014-09-14T15:13:01+02:00</time>
      </trkpt>
      <trkpt lat="43.45567" lon="6.85386">
        <ele>79</ele>
        <time>2014-09-14T15:13:06+02:00</time>
      </trkpt>
      <trkpt lat="43.45554" lon="6.85397">
        <ele>79</ele>
        <time>2014-09-14T15:13:11+02:00</time>
      </trkpt>
      <trkpt lat="43.45541" lon="6.85416">
        <ele>78</ele>
        <time>2014-09-14T15:13:16+02:00</time>
      </trkpt>
      <trkpt lat="43.45529" lon="6.85441">
        <ele>78</ele>
        <time>2014-09-14T15:13:21+02:00</time>
      </trkpt>
      <trkpt lat="43.4551" lon="6.85453">
        <ele>75</ele>
        <time>2014-09-14T15:13:26+02:00</time>
      </trkpt>
      <trkpt lat="43.45501" lon="6.85451">
        <ele>74</ele>
        <time>2014-09-14T15:13:31+02:00</time>
      </trkpt>
      <trkpt lat="43.45493" lon="6.85445">
        <ele>73</ele>
        <time>2014-09-14T15:13:36+02:00</time>
      </trkpt>
      <trkpt lat="43.45478" lon="6.85425">
        <ele>71</ele>
        <time>2014-09-14T15:13:41+02:00</time>
      </trkpt>
      <trkpt lat="43.45469" lon="6.85406">
        <ele>69</ele>
        <time>2014-09-14T15:13:46+02:00</time>
      </trkpt>
      <trkpt lat="43.45446" lon="6.85363">
        <ele>65</ele>
        <time>2014-09-14T15:13:51+02:00</time>
      </trkpt>
      <trkpt lat="43.45431" lon="6.85316">
        <ele>62</ele>
        <time>2014-09-14T15:13:56+02:00</time>
      </trkpt>
      <trkpt lat="43.45419" lon="6.85281">
        <ele>59</ele>
        <time>2014-09-14T15:14:01+02:00</time>
      </trkpt>
      <trkpt lat="43.4541" lon="6.8526">
        <ele>58</ele>
        <time>2014-09-14T15:14:06+02:00</time>
      </trkpt>
      <trkpt lat="43.45399" lon="6.85253">
        <ele>56</ele>
        <time>2014-09-14T15:14:11+02:00</time>
      </trkpt>
      <trkpt lat="43.45388" lon="6.85251">
        <ele>55</ele>
        <time>2014-09-14T15:14:16+02:00</time>
      </trkpt>
      <trkpt lat="43.45381" lon="6.85244">
        <ele>55</ele>
        <time>2014-09-14T15:14:21+02:00</time>
      </trkpt>
      <trkpt lat="43.45378" lon="6.8523">
        <ele>55</ele>
        <time>2014-09-14T15:14:26+02:00</time>
      </trkpt>
      <trkpt lat="43.45376" lon="6.85202">
        <ele>55</ele>
        <time>2014-09-14T15:14:31+02:00</time>
      </trkpt>
      <trkpt lat="43.45369" lon="6.85178">
        <ele>56</ele>
        <time>2014-09-14T15:14:36+02:00</time>
      </trkpt>
      <trkpt lat="43.45359" lon="6.85152">
        <ele>56</ele>
        <time>2014-09-14T15:14:41+02:00</time>
      </trkpt>
      <trkpt lat="43.45348" lon="6.85144">
        <ele>57</ele>
        <time>2014-09-14T15:14:46+02:00</time>
      </trkpt>
      <trkpt lat="43.45327" lon="6.85135">
        <ele>58</ele>
        <time>2014-09-14T15:14:51+02:00</time>
      </trkpt>
      <trkpt lat="43.45321" lon="6.85101">
        <ele>58</ele>
        <time>2014-09-14T15:14:56+02:00</time>
      </trkpt>
      <trkpt lat="43.45304" lon="6.85047">
        <ele>58</ele>
        <time>2014-09-14T15:15:01+02:00</time>
      </trkpt>
      <trkpt lat="43.45256" lon="6.84976">
        <ele>51</ele>
        <time>2014-09-14T15:15:06+02:00</time>
      </trkpt>
      <trkpt lat="43.45229" lon="6.84923">
        <ele>46</ele>
        <time>2014-09-14T15:15:11+02:00</time>
      </trkpt>
      <trkpt lat="43.45208" lon="6.849">
        <ele>44</ele>
        <time>2014-09-14T15:15:16+02:00</time>
      </trkpt>
      <trkpt lat="43.45185" lon="6.84885">
        <ele>41</ele>
        <time>2014-09-14T15:15:21+02:00</time>
      </trkpt>
      <trkpt lat="43.45167" lon="6.84868">
        <ele>40</ele>
        <time>2014-09-14T15:15:26+02:00</time>
      </trkpt>
      <trkpt lat="43.45147" lon="6.84854">
        <ele>38</ele>
        <time>2014-09-14T15:15:31+02:00</time>
      </trkpt>
      <trkpt lat="43.45102" lon="6.84824">
        <ele>35</ele>
        <time>2014-09-14T15:15:36+02:00</time>
      </trkpt>
      <trkpt lat="43.45076" lon="6.84787">
        <ele>33</ele>
        <time>2014-09-14T15:15:41+02:00</time>
      </trkpt>
      <trkpt lat="43.45061" lon="6.84779">
        <ele>31</ele>
        <time>2014-09-14T15:15:46+02:00</time>
      </trkpt>
      <trkpt lat="43.45044" lon="6.84783">
        <ele>32</ele>
        <time>2014-09-14T15:15:51+02:00</time>
      </trkpt>
      <trkpt lat="43.45016" lon="6.84781">
        <ele>28</ele>
        <time>2014-09-14T15:15:56+02:00</time>
      </trkpt>
      <trkpt lat="43.45" lon="6.84785">
        <ele>27</ele>
        <time>2014-09-14T15:16:01+02:00</time>
      </trkpt>
      <trkpt lat="43.44988" lon="6.84786">
        <ele>25</ele>
        <time>2014-09-14T15:16:06+02:00</time>
      </trkpt>
      <trkpt lat="43.44977" lon="6.84779">
        <ele>23</ele>
        <time>2014-09-14T15:16:11+02:00</time>
      </trkpt>
      <trkpt lat="43.44952" lon="6.84738">
        <ele>16</ele>
        <time>2014-09-14T15:16:16+02:00</time>
      </trkpt>
      <trkpt lat="43.44914" lon="6.8471">
        <ele>11</ele>
        <time>2014-09-14T15:16:21+02:00</time>
      </trkpt>
      <trkpt lat="43.44904" lon="6.84704">
        <ele>10</ele>
        <time>2014-09-14T15:16:26+02:00</time>
      </trkpt>
      <trkpt lat="43.44891" lon="6.84702">
        <ele>10</ele>
        <time>2014-09-14T15:16:31+02:00</time>
      </trkpt>
      <trkpt lat="43.44869" lon="6.84702">
        <ele>9</ele>
        <time>2014-09-14T15:16:36+02:00</time>
      </trkpt>
      <trkpt lat="43.44853" lon="6.84709">
        <ele>9</ele>
        <time>2014-09-14T15:16:41+02:00</time>
      </trkpt>
      <trkpt lat="43.44838" lon="6.84712">
        <ele>10</ele>
        <time>2014-09-14T15:16:46+02:00</time>
      </trkpt>
      <trkpt lat="43.44843" lon="6.84698">
        <ele>10</ele>
        <time>2014-09-14T15:16:51+02:00</time>
      </trkpt>
      <trkpt lat="43.44854" lon="6.84688">
        <ele>10</ele>
        <time>2014-09-14T15:16:56+02:00</time>
      </trkpt>
      <trkpt lat="43.44875" lon="6.84679">
        <ele>10</ele>
        <time>2014-09-14T15:17:01+02:00</time>
      </trkpt>
      <trkpt lat="43.44916" lon="6.84674">
        <ele>11</ele>
        <time>2014-09-14T15:17:06+02:00</time>
      </trkpt>
      <trkpt lat="43.44941" lon="6.84662">
        <ele>11</ele>
        <time>2014-09-14T15:17:11+02:00</time>
      </trkpt>
      <trkpt lat="43.44965" lon="6.84645">
        <ele>11</ele>
        <time>2014-09-14T15:17:16+02:00</time>
      </trkpt>
      <trkpt lat="43.44978" lon="6.8463">
        <ele>11</ele>
        <time>2014-09-14T15:17:21+02:00</time>
      </trkpt>
      <trkpt lat="43.44994" lon="6.84622">
        <ele>11</ele>
        <time>2014-09-14T15:17:26+02:00</time>
      </trkpt>
      <trkpt lat="43.45006" lon="6.84602">
        <ele>11</ele>
        <time>2014-09-14T15:17:31+02:00</time>
      </trkpt>
      <trkpt lat="43.45016" lon="6.84579">
        <ele>10</ele>
        <time>2014-09-14T15:17:36+02:00</time>
      </trkpt>
      <trkpt lat="43.45021" lon="6.84558">
        <ele>9</ele>
        <time>2014-09-14T15:17:41+02:00</time>
      </trkpt>
      <trkpt lat="43.45031" lon="6.84543">
        <ele>9</ele>
        <time>2014-09-14T15:17:46+02:00</time>
      </trkpt>
      <trkpt lat="43.4504" lon="6.84527">
        <ele>8</ele>
        <time>2014-09-14T15:17:51+02:00</time>
      </trkpt>
      <trkpt lat="43.45045" lon="6.84514">
        <ele>9</ele>
        <time>2014-09-14T15:17:56+02:00</time>
      </trkpt>
      <trkpt lat="43.45053" lon="6.845">
        <ele>9</ele>
        <time>2014-09-14T15:18:01+02:00</time>
      </trkpt>
      <trkpt lat="43.45065" lon="6.84479">
        <ele>10</ele>
        <time>2014-09-14T15:18:06+02:00</time>
      </trkpt>
      <trkpt lat="43.45076" lon="6.84454">
        <ele>10</ele>
        <time>2014-09-14T15:18:11+02:00</time>
      </trkpt>
      <trkpt lat="43.45082" lon="6.84425">
        <ele>11</ele>
        <time>2014-09-14T15:18:16+02:00</time>
      </trkpt>
      <trkpt lat="43.45096" lon="6.844">
        <ele>11</ele>
        <time>2014-09-14T15:18:21+02:00</time>
      </trkpt>
      <trkpt lat="43.45118" lon="6.84365">
        <ele>10</ele>
        <time>2014-09-14T15:18:26+02:00</time>
      </trkpt>
      <trkpt lat="43.45134" lon="6.84341">
        <ele>11</ele>
        <time>2014-09-14T15:18:31+02:00</time>
      </trkpt>
      <trkpt lat="43.45149" lon="6.84314">
        <ele>11</ele>
        <time>2014-09-14T15:18:36+02:00</time>
      </trkpt>
      <trkpt lat="43.45157" lon="6.84302">
        <ele>11</ele>
        <time>2014-09-14T15:18:41+02:00</time>
      </trkpt>
      <trkpt lat="43.45162" lon="6.84286">
        <ele>12</ele>
        <time>2014-09-14T15:18:46+02:00</time>
      </trkpt>
      <trkpt lat="43.45175" lon="6.84268">
        <ele>14</ele>
        <time>2014-09-14T15:18:51+02:00</time>
      </trkpt>
      <trkpt lat="43.4518" lon="6.84259">
        <ele>15</ele>
        <time>2014-09-14T15:18:56+02:00</time>
      </trkpt>
      <trkpt lat="43.45185" lon="6.84242">
        <ele>16</ele>
        <time>2014-09-14T15:19:01+02:00</time>
      </trkpt>
      <trkpt lat="43.45193" lon="6.84226">
        <ele>18</ele>
        <time>2014-09-14T15:19:06+02:00</time>
      </trkpt>
      <trkpt lat="43.45235" lon="6.8421">
        <ele>18</ele>
        <time>2014-09-14T15:19:11+02:00</time>
      </trkpt>
      <trkpt lat="43.45289" lon="6.84195">
        <ele>20</ele>
        <time>2014-09-14T15:19:16+02:00</time>
      </trkpt>
      <trkpt lat="43.45306" lon="6.84187">
        <ele>22</ele>
        <time>2014-09-14T15:19:21+02:00</time>
      </trkpt>
      <trkpt lat="43.45321" lon="6.84175">
        <ele>24</ele>
        <time>2014-09-14T15:19:26+02:00</time>
      </trkpt>
      <trkpt lat="43.4534" lon="6.84158">
        <ele>27</ele>
        <time>2014-09-14T15:19:31+02:00</time>
      </trkpt>
      <trkpt lat="43.45353" lon="6.84138">
        <ele>31</ele>
        <time>2014-09-14T15:19:36+02:00</time>
      </trkpt>
      <trkpt lat="43.45369" lon="6.84114">
        <ele>36</ele>
        <time>2014-09-14T15:19:41+02:00</time>
      </trkpt>
      <trkpt lat="43.45387" lon="6.84095">
        <ele>39</ele>
        <time>2014-09-14T15:19:46+02:00</time>
      </trkpt>
      <trkpt lat="43.45413" lon="6.84085">
        <ele>39</ele>
        <time>2014-09-14T15:19:51+02:00</time>
      </trkpt>
      <trkpt lat="43.45441" lon="6.84083">
        <ele>38</ele>
        <time>2014-09-14T15:19:56+02:00</time>
      </trkpt>
      <trkpt lat="43.45474" lon="6.84088">
        <ele>34</ele>
        <time>2014-09-14T15:20:01+02:00</time>
      </trkpt>
      <trkpt lat="43.45496" lon="6.8409">
        <ele>31</ele>
        <time>2014-09-14T15:20:06+02:00</time>
      </trkpt>
      <trkpt lat="43.45514" lon="6.84096">
        <ele>28</ele>
        <time>2014-09-14T15:20:11+02:00</time>
      </trkpt>
      <trkpt lat="43.45529" lon="6.84102">
        <ele>25</ele>
        <time>2014-09-14T15:20:16+02:00</time>
      </trkpt>
      <trkpt lat="43.45547" lon="6.84106">
        <ele>23</ele>
        <time>2014-09-14T15:20:21+02:00</time>
      </trkpt>
      <trkpt lat="43.45564" lon="6.84093">
        <ele>26</ele>
        <time>2014-09-14T15:20:26+02:00</time>
      </trkpt>
      <trkpt lat="43.45584" lon="6.84072">
        <ele>30</ele>
        <time>2014-09-14T15:20:31+02:00</time>
      </trkpt>
      <trkpt lat="43.45601" lon="6.84061">
        <ele>33</ele>
        <time>2014-09-14T15:20:36+02:00</time>
      </trkpt>
      <trkpt lat="43.45619" lon="6.84038">
        <ele>37</ele>
        <time>2014-09-14T15:20:41+02:00</time>
      </trkpt>
      <trkpt lat="43.45637" lon="6.84012">
        <ele>41</ele>
        <time>2014-09-14T15:20:46+02:00</time>
      </trkpt>
      <trkpt lat="43.4565" lon="6.83992">
        <ele>43</ele>
        <time>2014-09-14T15:20:51+02:00</time>
      </trkpt>
      <trkpt lat="43.45666" lon="6.83978">
        <ele>43</ele>
        <time>2014-09-14T15:20:56+02:00</time>
      </trkpt>
      <trkpt lat="43.45681" lon="6.83971">
        <ele>42</ele>
        <time>2014-09-14T15:21:01+02:00</time>
      </trkpt>
      <trkpt lat="43.45696" lon="6.83953">
        <ele>42</ele>
        <time>2014-09-14T15:21:06+02:00</time>
      </trkpt>
      <trkpt lat="43.45716" lon="6.83931">
        <ele>39</ele>
        <time>2014-09-14T15:21:11+02:00</time>
      </trkpt>
      <trkpt lat="43.45739" lon="6.83922">
        <ele>35</ele>
        <time>2014-09-14T15:21:16+02:00</time>
      </trkpt>
      <trkpt lat="43.4573" lon="6.83885">
        <ele>42</ele>
        <time>2014-09-14T15:21:21+02:00</time>
      </trkpt>
      <trkpt lat="43.45717" lon="6.83847">
        <ele>47</ele>
        <time>2014-09-14T15:21:26+02:00</time>
      </trkpt>
      <trkpt lat="43.45715" lon="6.83827">
        <ele>48</ele>
        <time>2014-09-14T15:21:31+02:00</time>
      </trkpt>
      <trkpt lat="43.45717" lon="6.83811">
        <ele>48</ele>
        <time>2014-09-14T15:21:36+02:00</time>
      </trkpt>
      <trkpt lat="43.45721" lon="6.83792">
        <ele>48</ele>
        <time>2014-09-14T15:21:41+02:00</time>
      </trkpt>
      <trkpt lat="43.45724" lon="6.83766">
        <ele>47</ele>
        <time>2014-09-14T15:21:46+02:00</time>
      </trkpt>
      <trkpt lat="43.45727" lon="6.8374">
        <ele>47</ele>
        <time>2014-09-14T15:21:51+02:00</time>
      </trkpt>
      <trkpt lat="43.45726" lon="6.8371">
        <ele>46</ele>
        <time>2014-09-14T15:21:56+02:00</time>
      </trkpt>
      <trkpt lat="43.45719" lon="6.83688">
        <ele>44</ele>
        <time>2014-09-14T15:22:01+02:00</time>
      </trkpt>
      <trkpt lat="43.45706" lon="6.83665">
        <ele>42</ele>
        <time>2014-09-14T15:22:06+02:00</time>
      </trkpt>
      <trkpt lat="43.45688" lon="6.83626">
        <ele>43</ele>
        <time>2014-09-14T15:22:11+02:00</time>
      </trkpt>
      <trkpt lat="43.45682" lon="6.83581">
        <ele>46</ele>
        <time>2014-09-14T15:22:16+02:00</time>
      </trkpt>
      <trkpt lat="43.45679" lon="6.83533">
        <ele>48</ele>
        <time>2014-09-14T15:22:21+02:00</time>
      </trkpt>
      <trkpt lat="43.45677" lon="6.8351">
        <ele>49</ele>
        <time>2014-09-14T15:22:26+02:00</time>
      </trkpt>
      <trkpt lat="43.45681" lon="6.83491">
        <ele>48</ele>
        <time>2014-09-14T15:22:31+02:00</time>
      </trkpt>
      <trkpt lat="43.45683" lon="6.83464">
        <ele>49</ele>
        <time>2014-09-14T15:22:36+02:00</time>
      </trkpt>
      <trkpt lat="43.45682" lon="6.83436">
        <ele>48</ele>
        <time>2014-09-14T15:22:41+02:00</time>
      </trkpt>
      <trkpt lat="43.45681" lon="6.83403">
        <ele>48</ele>
        <time>2014-09-14T15:22:46+02:00</time>
      </trkpt>
      <trkpt lat="43.45675" lon="6.83366">
        <ele>48</ele>
        <time>2014-09-14T15:22:51+02:00</time>
      </trkpt>
      <trkpt lat="43.45664" lon="6.8331">
        <ele>51</ele>
        <time>2014-09-14T15:22:56+02:00</time>
      </trkpt>
      <trkpt lat="43.45651" lon="6.83271">
        <ele>53</ele>
        <time>2014-09-14T15:23:01+02:00</time>
      </trkpt>
      <trkpt lat="43.45624" lon="6.83208">
        <ele>54</ele>
        <time>2014-09-14T15:23:06+02:00</time>
      </trkpt>
      <trkpt lat="43.456" lon="6.83163">
        <ele>56</ele>
        <time>2014-09-14T15:23:11+02:00</time>
      </trkpt>
      <trkpt lat="43.45591" lon="6.8314">
        <ele>56</ele>
        <time>2014-09-14T15:23:16+02:00</time>
      </trkpt>
      <trkpt lat="43.45584" lon="6.83112">
        <ele>56</ele>
        <time>2014-09-14T15:23:21+02:00</time>
      </trkpt>
      <trkpt lat="43.45581" lon="6.83066">
        <ele>56</ele>
        <time>2014-09-14T15:23:26+02:00</time>
      </trkpt>
      <trkpt lat="43.45576" lon="6.83027">
        <ele>55</ele>
        <time>2014-09-14T15:23:31+02:00</time>
      </trkpt>
      <trkpt lat="43.45567" lon="6.82998">
        <ele>55</ele>
        <time>2014-09-14T15:23:36+02:00</time>
      </trkpt>
      <trkpt lat="43.45552" lon="6.8296">
        <ele>53</ele>
        <time>2014-09-14T15:23:41+02:00</time>
      </trkpt>
      <trkpt lat="43.45543" lon="6.82954">
        <ele>52</ele>
        <time>2014-09-14T15:23:46+02:00</time>
      </trkpt>
      <trkpt lat="43.45537" lon="6.82942">
        <ele>52</ele>
        <time>2014-09-14T15:23:51+02:00</time>
      </trkpt>
      <trkpt lat="43.45538" lon="6.82923">
        <ele>52</ele>
        <time>2014-09-14T15:23:56+02:00</time>
      </trkpt>
      <trkpt lat="43.45537" lon="6.8291">
        <ele>52</ele>
        <time>2014-09-14T15:24:01+02:00</time>
      </trkpt>
      <trkpt lat="43.45545" lon="6.82891">
        <ele>52</ele>
        <time>2014-09-14T15:24:06+02:00</time>
      </trkpt>
      <trkpt lat="43.45552" lon="6.82862">
        <ele>53</ele>
        <time>2014-09-14T15:24:11+02:00</time>
      </trkpt>
      <trkpt lat="43.45559" lon="6.82838">
        <ele>54</ele>
        <time>2014-09-14T15:24:16+02:00</time>
      </trkpt>
      <trkpt lat="43.45565" lon="6.82816">
        <ele>55</ele>
        <time>2014-09-14T15:24:21+02:00</time>
      </trkpt>
      <trkpt lat="43.45571" lon="6.82779">
        <ele>57</ele>
        <time>2014-09-14T15:24:26+02:00</time>
      </trkpt>
      <trkpt lat="43.45583" lon="6.82747">
        <ele>59</ele>
        <time>2014-09-14T15:24:31+02:00</time>
      </trkpt>
      <trkpt lat="43.45596" lon="6.82724">
        <ele>62</ele>
        <time>2014-09-14T15:24:36+02:00</time>
      </trkpt>
      <trkpt lat="43.45605" lon="6.82716">
        <ele>63</ele>
        <time>2014-09-14T15:24:41+02:00</time>
      </trkpt>
      <trkpt lat="43.45611" lon="6.82704">
        <ele>63</ele>
        <time>2014-09-14T15:24:46+02:00</time>
      </trkpt>
      <trkpt lat="43.45598" lon="6.82658">
        <ele>65</ele>
        <time>2014-09-14T15:24:51+02:00</time>
      </trkpt>
      <trkpt lat="43.45602" lon="6.82626">
        <ele>66</ele>
        <time>2014-09-14T15:24:56+02:00</time>
      </trkpt>
      <trkpt lat="43.45615" lon="6.82592">
        <ele>68</ele>
        <time>2014-09-14T15:25:01+02:00</time>
      </trkpt>
      <trkpt lat="43.45634" lon="6.82523">
        <ele>72</ele>
        <time>2014-09-14T15:25:06+02:00</time>
      </trkpt>
      <trkpt lat="43.45724" lon="6.82451">
        <ele>76</ele>
        <time>2014-09-14T15:25:11+02:00</time>
      </trkpt>
      <trkpt lat="43.45773" lon="6.82417">
        <ele>81</ele>
        <time>2014-09-14T15:25:16+02:00</time>
      </trkpt>
      <trkpt lat="43.4582" lon="6.82374">
        <ele>83</ele>
        <time>2014-09-14T15:25:21+02:00</time>
      </trkpt>
      <trkpt lat="43.45854" lon="6.82345">
        <ele>87</ele>
        <time>2014-09-14T15:25:26+02:00</time>
      </trkpt>
      <trkpt lat="43.45891" lon="6.8232">
        <ele>89</ele>
        <time>2014-09-14T15:25:31+02:00</time>
      </trkpt>
      <trkpt lat="43.45925" lon="6.82295">
        <ele>92</ele>
        <time>2014-09-14T15:25:36+02:00</time>
      </trkpt>
      <trkpt lat="43.45962" lon="6.82263">
        <ele>98</ele>
        <time>2014-09-14T15:25:41+02:00</time>
      </trkpt>
      <trkpt lat="43.46012" lon="6.82228">
        <ele>105</ele>
        <time>2014-09-14T15:25:46+02:00</time>
      </trkpt>
      <trkpt lat="43.46031" lon="6.82205">
        <ele>107</ele>
        <time>2014-09-14T15:25:51+02:00</time>
      </trkpt>
      <trkpt lat="43.46053" lon="6.82195">
        <ele>107</ele>
        <time>2014-09-14T15:25:56+02:00</time>
      </trkpt>
      <trkpt lat="43.46065" lon="6.82217">
        <ele>110</ele>
        <time>2014-09-14T15:26:01+02:00</time>
      </trkpt>
      <trkpt lat="43.46076" lon="6.82235">
        <ele>112</ele>
        <time>2014-09-14T15:26:06+02:00</time>
      </trkpt>
      <trkpt lat="43.4608" lon="6.8222">
        <ele>111</ele>
        <time>2014-09-14T15:26:11+02:00</time>
      </trkpt>
      <trkpt lat="43.46082" lon="6.82199">
        <ele>109</ele>
        <time>2014-09-14T15:26:16+02:00</time>
      </trkpt>
      <trkpt lat="43.46087" lon="6.82163">
        <ele>106</ele>
        <time>2014-09-14T15:26:21+02:00</time>
      </trkpt>
      <trkpt lat="43.46082" lon="6.82123">
        <ele>102</ele>
        <time>2014-09-14T15:26:26+02:00</time>
      </trkpt>
      <trkpt lat="43.46075" lon="6.82091">
        <ele>100</ele>
        <time>2014-09-14T15:26:31+02:00</time>
      </trkpt>
    </trkseg>
  </trk>
</gpx>